Hlavní strana
METAR-TAF:

METAR-TAF

Letiště :

Flora Municipal Airport

Flora, Illinois, Spojené státy americké

zeměpisná šířka: 38-39-54N, zeměpisná délka: 088-27-11W, výška: 144 m

Aktuální stav počasí

Zpráva byla vytvořena před 24 minutami, v 03:15 UTC
Bezvětří
Teplota 3°C
Vlhkost vzduchu 87%
Tlak 1017 hPa
Viditelnost: 16.1 km
Jasno

METAR: KFOA 200315Z AUTO 00000KT 10SM CLR 03/01 A3002 RMK AO2 TSNO

Čas: 21:39 (03:39 UTC)


TAF: chybějící

Stav a předpovědi počasí z více než 4 000 letišť (zprávy METAR a TAF).

Červené a žluté tečky na mapě představují dostupné meteorologické stanice.

Když kurzor umístíte na tečku, zobrazí se název stanice.

Pak kliknutím zobrazíte stav a předpověď počasí.

Chcete-li změnit mapu, kliknutím na zelené tlačítko se znaménkem +mapu přiblížíte, kliknutím na zelené tlačítko se znaménkem – mapu oddálíte a kliknutím na zelené šipky přejdete na sousední mapy.


METAR-TAF: